Date,TemperatureHighF,TemperatureAvgF,TemperatureLowF,DewpointHighF,DewpointAvgF,DewpointLowF,HumidityHigh,HumidityAvg,HumidityLow,PressureMaxIn,PressureMinIn,WindSpeedMaxMPH,WindSpeedAvgMPH,GustSpeedMaxMPH,PrecipitationSumIn
2013-1-1,55.5,46.6,36.6,52.9,43.3,32.2,91,88,80,30.19,29.93,0,0,0,0.09
2013-1-2,42.2,35.5,27.3,32.2,28.3,22.7,84,75,62,30.27,30.18,0,0,0,0.00
2013-1-3,42.6,36.2,26.2,32.4,28.9,22.3,88,75,61,30.38,30.26,0,0,0,0.00
2013-1-4,39.5,37.6,33.4,36.2,34.1,30.6,91,87,76,30.45,30.32,0,0,0,0.22
2013-1-5,55.9,45.2,35.2,42.7,38.6,31.8,91,79,59,30.32,30.17,0,0,0,0.04
2013-1-6,57.3,42.1,28.0,34.9,31.0,25.4,91,68,37,30.35,30.23,0,0,0,0.00
2013-1-7,57.2,45.6,27.3,39.2,34.1,23.6,88,66,47,30.27,30.01,0,0,0,0.00
2013-1-8,51.9,48.6,45.6,49.3,45.4,39.2,91,89,75,30.01,29.84,0,0,0,1.24
2013-1-9,56.3,52.8,48.9,53.7,50.2,46.4,92,91,90,29.98,29.82,0,0,0,1.25
2013-1-10,65.4,52.7,42.4,47.8,44.2,40.2,92,75,49,30.00,29.93,0,0,0,0.02
2013-1-11,71.2,57.8,47.8,62.1,51.7,41.4,91,81,63,29.97,29.78,0,0,0,0.00
2013-1-12,71.7,65.7,46.2,65.7,57.7,0.0,92,81,59,29.85,29.64,0,0,0,0.00
2013-1-13,49.6,40.3,33.6,35.0,28.8,24.9,74,64,50,30.13,29.87,0,0,0,0.00
2013-1-14,48.9,35.8,30.9,30.5,25.0,21.5,71,65,48,30.20,30.05,0,0,0,0.00
2013-1-15,38.4,34.1,30.0,31.5,30.0,22.0,90,85,71,30.20,30.05,0,0,0,0.01
2013-1-16,51.0,36.6,26.0,23.9,21.0,18.2,78,56,30,30.28,30.14,0,0,0,0.00
2013-1-17,64.0,43.9,31.2,38.0,31.5,22.6,84,64,36,30.42,30.26,0,0,0,0.00
2013-1-18,67.2,47.9,28.5,39.0,33.4,25.1,89,61,32,30.45,30.26,0,0,0,0.00
2013-1-19,68.9,50.1,36.1,46.9,40.2,32.5,90,71,43,30.26,30.10,0,0,0,0.00
2013-1-20,76.8,57.1,42.2,51.4,44.4,38.5,90,67,32,30.19,30.05,0,0,0,0.00
2013-1-21,71.2,53.5,40.8,53.0,46.0,37.5,90,77,50,30.20,30.09,0,0,0,0.00
2013-1-27,78.4,66.8,59.7,63.4,60.3,56.5,90,81,58,30.05,29.91,0,0,0,0.00
2013-1-28,77.0,69.1,66.0,65.3,63.7,62.8,91,83,66,29.99,29.83,0,0,0,0.00
2013-1-29,80.7,67.1,51.6,65.6,55.0,25.3,91,68,31,29.85,29.51,0,0,0,0.00
2013-1-30,56.1,47.6,32.9,27.7,20.9,16.0,61,36,22,30.18,29.77,0,0,0,0.00
2013-1-31,37.9,34.7,31.8,21.3,19.7,18.5,61,54,47,30.18,30.15,0,0,0,0.00